Mae Sariang, Thailand
Current Conditions -  °F | °C
As of 6:00 PM on Thursday 23 Oct 2014 (Local Time) from VTCC Reporting Station
Light Rain Light Rain  
Wind Chill: 77°   Ceiling: 3200
Heat Index: 79°   Visibility: 5mi
Dew Point: 70°   Wind: 7mph
Humidity: 78%   Direction: 20°NNE
Pressure: 29.91"   Gusts: NA
Location:  18.15°N, 97.93°E
Report Text: VTCC 231100Z 02006KT 8000 -RA FEW025CB BKN032 25/21 Q1013 A2993 TEMPO VRB10G25KT 5000 TSRA FEW025CB BKN030
Loading
Personal Weather Stations






























Interactive Weather Map
Tropical Storm Tracking
New forecast layout! Learn more

10-Day Weather Forecast

Advertisements
Track Severe Weather on mobile